Time;durP1;ratioP1;P1;durP2;ratioP2;P2;SDS_P1;SDS_P2;PMS_P1;PMS_P2;Temp;Humidity;BMP_temperature;BMP_pressure;BME280_temperature;BME280_humidity;BME280_pressure;Samples;Min_cycle;Max_cycle;Signal;HPM_P1;HPM_P2
2022/06/18 00:00:37;;;;;;;7.10;4.43;;;;;;;;;;4452280;32;20357;-75
2022/06/18 00:03:02;;;;;;;10.32;4.20;;;;;;;;;;4454099;32;20022;-76
2022/06/18 00:05:28;;;;;;;9.50;4.00;;;;;;;;;;4455229;32;20428;-75
2022/06/18 00:07:55;;;;;;;13.10;4.50;;;;;;;;;;4454381;32;20399;-75
2022/06/18 00:10:22;;;;;;;11.75;3.90;;;;;;;;;;4454747;32;20020;-75
2022/06/18 00:15:33;;;;;;;12.00;5.03;;;;;;;;;;4453881;32;20048;-75
2022/06/18 00:17:59;;;;;;;8.00;3.83;;;;;;;;;;4453508;32;20052;-76
2022/06/18 00:20:26;;;;;;;8.80;3.97;;;;;;;;;;4454474;32;20037;-75
2022/06/18 00:22:53;;;;;;;7.18;4.65;;;;;;;;;;4454905;32;20040;-75
2022/06/18 00:25:22;;;;;;;7.12;4.40;;;;;;;;;;4454078;32;20047;-75
2022/06/18 00:27:48;;;;;;;12.37;4.62;;;;;;;;;;4453457;32;20059;-75
2022/06/18 00:30:15;;;;;;;8.70;4.35;;;;;;;;;;4454228;32;20096;-75
2022/06/18 00:32:41;;;;;;;10.73;4.37;;;;;;;;;;4453992;32;20025;-75
2022/06/18 00:35:06;;;;;;;9.73;3.95;;;;;;;;;;4453399;32;20025;-75
2022/06/18 00:37:31;;;;;;;7.97;4.40;;;;;;;;;;4453636;32;20034;-75
2022/06/18 00:39:57;;;;;;;10.38;4.68;;;;;;;;;;4468161;27;20045;-65
2022/06/18 00:42:25;;;;;;;9.70;4.43;;;;;;;;;;4454335;32;20419;-64
2022/06/18 00:44:54;;;;;;;8.27;4.03;;;;;;;;;;4457301;32;20415;-65
2022/06/18 00:47:25;;;;;;;12.20;4.43;;;;;;;;;;4459723;32;20055;-65
2022/06/18 00:50:05;;;;;;;7.68;4.00;;;;;;;;;;4470326;32;20056;-65
2022/06/18 00:52:40;;;;;;;10.27;4.72;;;;;;;;;;4470017;32;20406;-64
2022/06/18 00:55:20;;;;;;;11.57;4.22;;;;;;;;;;4470067;32;20055;-64
2022/06/18 00:57:57;;;;;;;9.25;4.53;;;;;;;;;;4468520;32;20134;-66
2022/06/18 01:00:25;;;;;;;9.75;4.60;;;;;;;;;;4468911;32;20069;-64
2022/06/18 01:02:52;;;;;;;10.40;4.87;;;;;;;;;;4468303;32;20037;-65
2022/06/18 01:05:47;;;;;;;7.80;4.12;;;;;;;;;;4469202;32;20033;-64
2022/06/18 01:08:15;;;;;;;9.88;4.43;;;;;;;;;;4452636;32;20370;-64
2022/06/18 01:10:42;;;;;;;11.30;4.70;;;;;;;;;;4463954;32;20100;-64
2022/06/18 01:13:08;;;;;;;9.68;4.40;;;;;;;;;;4457107;32;20033;-66
2022/06/18 01:15:34;;;;;;;9.63;4.45;;;;;;;;;;4467452;32;20060;-65
2022/06/18 01:18:00;;;;;;;10.23;4.60;;;;;;;;;;4454963;32;20029;-65
2022/06/18 01:20:26;;;;;;;16.52;4.78;;;;;;;;;;4468093;32;20029;-65
2022/06/18 01:22:58;;;;;;;10.75;4.75;;;;;;;;;;4467719;32;20066;-65
2022/06/18 01:25:24;;;;;;;13.48;5.87;;;;;;;;;;4468061;32;20494;-66
2022/06/18 01:27:49;;;;;;;14.40;6.90;;;;;;;;;;4468448;32;20406;-66
2022/06/18 01:30:16;;;;;;;11.95;6.37;;;;;;;;;;4467741;32;20051;-66
2022/06/18 01:32:42;;;;;;;12.40;6.00;;;;;;;;;;4452476;32;20418;-64
2022/06/18 01:35:09;;;;;;;9.50;5.05;;;;;;;;;;4453362;32;20085;-64
2022/06/18 01:37:35;;;;;;;13.20;5.25;;;;;;;;;;4452035;32;20452;-64
2022/06/18 01:40:00;;;;;;;10.48;4.57;;;;;;;;;;4439407;32;20050;-65
2022/06/18 01:42:27;;;;;;;15.93;4.95;;;;;;;;;;4437941;32;20415;-64
2022/06/18 01:45:08;;;;;;;9.48;5.12;;;;;;;;;;4450539;32;20068;-65
2022/06/18 01:47:45;;;;;;;12.57;4.65;;;;;;;;;;4452218;32;20060;-65
2022/06/18 01:50:16;;;;;;;12.73;5.15;;;;;;;;;;4453695;32;20040;-65
2022/06/18 01:52:50;;;;;;;7.70;4.12;;;;;;;;;;4451621;32;20025;-65
2022/06/18 01:55:27;;;;;;;13.65;5.15;;;;;;;;;;4453176;32;20060;-65
2022/06/18 01:57:54;;;;;;;18.17;5.37;;;;;;;;;;4453857;32;20415;-65
2022/06/18 02:00:22;;;;;;;15.52;4.95;;;;;;;;;;4453187;32;20033;-65
2022/06/18 02:02:48;;;;;;;11.27;5.30;;;;;;;;;;4452194;32;20068;-65
2022/06/18 02:05:14;;;;;;;11.70;4.45;;;;;;;;;;4452950;32;20418;-65
2022/06/18 02:07:40;;;;;;;13.82;4.60;;;;;;;;;;4438831;32;20041;-65
2022/06/18 02:10:08;;;;;;;15.50;5.18;;;;;;;;;;4452246;32;20037;-66
2022/06/18 02:12:36;;;;;;;12.70;5.07;;;;;;;;;;4438492;32;20041;-65
2022/06/18 02:15:13;;;;;;;12.37;5.15;;;;;;;;;;4438414;32;20022;-65
2022/06/18 02:17:39;;;;;;;11.30;5.18;;;;;;;;;;4452075;32;20180;-65
2022/06/18 02:20:11;;;;;;;16.25;6.60;;;;;;;;;;4451348;32;20025;-64
2022/06/18 02:22:48;;;;;;;12.77;4.75;;;;;;;;;;4451544;32;20413;-64
2022/06/18 02:25:14;;;;;;;11.27;4.93;;;;;;;;;;4452034;32;20033;-64
2022/06/18 02:27:40;;;;;;;9.27;5.03;;;;;;;;;;4452581;32;20081;-64
2022/06/18 02:30:10;;;;;;;11.43;4.97;;;;;;;;;;4452446;32;20037;-64
2022/06/18 02:32:42;;;;;;;15.00;5.50;;;;;;;;;;4452847;32;20029;-64
2022/06/18 02:35:11;;;;;;;10.13;5.60;;;;;;;;;;4437647;32;20338;-64
2022/06/18 02:37:37;;;;;;;14.65;5.78;;;;;;;;;;4450868;32;20026;-65
2022/06/18 02:40:02;;;;;;;9.05;5.35;;;;;;;;;;4438162;32;20071;-64
2022/06/18 02:42:30;;;;;;;10.13;5.18;;;;;;;;;;4451665;32;20069;-65
2022/06/18 02:44:56;;;;;;;16.33;6.05;;;;;;;;;;4451405;32;20067;-64
2022/06/18 02:47:21;;;;;;;13.15;5.97;;;;;;;;;;4451886;32;20096;-65
2022/06/18 02:50:00;;;;;;;9.77;6.28;;;;;;;;;;4450593;32;20094;-65
2022/06/18 02:52:29;;;;;;;18.67;6.30;;;;;;;;;;4452486;32;20384;-66
2022/06/18 02:55:07;;;;;;;14.75;6.30;;;;;;;;;;4436547;32;20037;-66
2022/06/18 02:57:32;;;;;;;13.77;6.25;;;;;;;;;;4450734;32;20026;-66
2022/06/18 02:59:58;;;;;;;17.30;5.68;;;;;;;;;;4450492;32;20098;-65
2022/06/18 03:02:23;;;;;;;11.93;6.22;;;;;;;;;;4452122;32;20118;-65
2022/06/18 03:04:48;;;;;;;12.93;6.87;;;;;;;;;;4450759;32;20491;-65
2022/06/18 03:07:13;;;;;;;15.30;6.00;;;;;;;;;;4450973;32;20146;-65
2022/06/18 03:12:06;;;;;;;14.33;7.40;;;;;;;;;;4451891;32;20084;-65
2022/06/18 03:12:23;;;;;;;16.20;6.50;;;;;;;;;;4452481;32;20150;-66
2022/06/18 03:14:49;;;;;;;14.07;6.50;;;;;;;;;;4451805;32;20022;-65
2022/06/18 03:17:14;;;;;;;16.20;7.18;;;;;;;;;;4451458;32;20025;-66
2022/06/18 03:19:41;;;;;;;18.13;6.20;;;;;;;;;;4452785;32;20120;-65
2022/06/18 03:22:14;;;;;;;19.17;7.85;;;;;;;;;;4451913;32;20191;-65
2022/06/18 03:24:42;;;;;;;16.45;6.82;;;;;;;;;;4452137;32;20060;-65
2022/06/18 03:27:08;;;;;;;17.02;7.00;;;;;;;;;;4453323;32;20059;-65
2022/06/18 03:29:34;;;;;;;15.73;7.60;;;;;;;;;;4451563;32;20390;-65
2022/06/18 03:32:02;;;;;;;13.50;6.70;;;;;;;;;;4453201;32;20135;-66
2022/06/18 03:34:27;;;;;;;17.20;6.53;;;;;;;;;;4452968;32;20332;-65
2022/06/18 03:36:53;;;;;;;18.27;7.32;;;;;;;;;;4454728;32;20021;-66
2022/06/18 03:39:18;;;;;;;17.52;8.05;;;;;;;;;;4455487;32;20501;-65
2022/06/18 03:41:43;;;;;;;21.40;6.90;;;;;;;;;;4453011;32;20604;-66
2022/06/18 03:44:08;;;;;;;16.53;7.10;;;;;;;;;;4454643;32;20156;-65
2022/06/18 03:46:36;;;;;;;17.92;7.15;;;;;;;;;;4456056;32;20117;-65
2022/06/18 03:49:02;;;;;;;18.12;7.25;;;;;;;;;;4454223;32;20139;-64
2022/06/18 03:51:27;;;;;;;17.85;7.62;;;;;;;;;;4453999;32;20022;-64
2022/06/18 03:53:53;;;;;;;19.60;9.07;;;;;;;;;;4454243;32;20083;-64
2022/06/18 03:56:19;;;;;;;17.15;7.93;;;;;;;;;;4455742;32;20095;-64
2022/06/18 03:58:45;;;;;;;20.52;8.48;;;;;;;;;;4455474;32;20390;-64
2022/06/18 04:01:12;;;;;;;18.75;7.53;;;;;;;;;;4455363;32;20139;-64
2022/06/18 04:03:37;;;;;;;21.10;9.38;;;;;;;;;;4441001;32;20026;-64
2022/06/18 04:06:03;;;;;;;18.08;7.97;;;;;;;;;;4455441;32;20021;-65
2022/06/18 04:08:28;;;;;;;22.65;9.77;;;;;;;;;;4454887;32;20083;-65
2022/06/18 04:10:53;;;;;;;15.90;8.60;;;;;;;;;;4454964;32;20051;-64
2022/06/18 04:13:18;;;;;;;20.17;9.02;;;;;;;;;;4454945;32;20021;-64
2022/06/18 04:15:45;;;;;;;24.50;8.80;;;;;;;;;;4439623;32;20125;-64
2022/06/18 04:18:12;;;;;;;19.27;7.53;;;;;;;;;;4455089;32;20398;-65
2022/06/18 04:20:38;;;;;;;19.70;7.60;;;;;;;;;;4454620;32;20091;-65
2022/06/18 04:23:03;;;;;;;19.77;8.15;;;;;;;;;;4453802;32;20426;-64
2022/06/18 04:25:29;;;;;;;20.62;8.30;;;;;;;;;;4453170;32;20551;-64
2022/06/18 04:27:57;;;;;;;17.55;8.93;;;;;;;;;;4454520;32;20033;-64
2022/06/18 04:30:23;;;;;;;18.55;8.98;;;;;;;;;;4453453;32;20025;-65
2022/06/18 04:32:48;;;;;;;21.33;8.20;;;;;;;;;;4454105;32;20068;-64
2022/06/18 04:35:13;;;;;;;17.55;8.93;;;;;;;;;;4440848;32;20390;-65
2022/06/18 04:37:41;;;;;;;19.80;7.95;;;;;;;;;;4454568;32;20147;-65
2022/06/18 04:40:07;;;;;;;25.45;8.32;;;;;;;;;;4454572;32;20045;-65
2022/06/18 04:42:32;;;;;;;17.10;8.80;;;;;;;;;;4454994;32;20098;-64
2022/06/18 04:44:57;;;;;;;19.13;8.77;;;;;;;;;;4455112;32;20022;-65
2022/06/18 04:47:22;;;;;;;21.45;8.93;;;;;;;;;;4453855;32;20147;-65
2022/06/18 04:49:47;;;;;;;23.70;9.43;;;;;;;;;;4454530;32;20103;-65
2022/06/18 04:52:13;;;;;;;22.30;8.48;;;;;;;;;;4453409;32;20049;-65
2022/06/18 04:54:38;;;;;;;22.00;9.07;;;;;;;;;;4454253;32;20065;-65
2022/06/18 04:57:03;;;;;;;25.55;10.10;;;;;;;;;;4454551;32;20346;-65
2022/06/18 04:59:29;;;;;;;24.63;10.02;;;;;;;;;;4454629;32;20362;-65
2022/06/18 05:01:59;;;;;;;22.80;8.80;;;;;;;;;;4453301;32;20387;-65
2022/06/18 05:04:24;;;;;;;22.87;9.38;;;;;;;;;;4454932;32;20033;-65
2022/06/18 05:06:49;;;;;;;21.73;8.48;;;;;;;;;;4453226;32;20024;-64
2022/06/18 05:09:14;;;;;;;20.02;8.93;;;;;;;;;;4452874;32;20025;-65
2022/06/18 05:11:40;;;;;;;24.60;8.80;;;;;;;;;;4439921;32;20151;-65
2022/06/18 05:14:05;;;;;;;23.60;8.82;;;;;;;;;;4452715;32;20050;-65
2022/06/18 05:16:30;;;;;;;22.73;8.63;;;;;;;;;;4452909;32;20429;-64
2022/06/18 05:18:55;;;;;;;22.30;7.95;;;;;;;;;;4454818;32;20124;-65
2022/06/18 05:21:21;;;;;;;24.80;9.02;;;;;;;;;;4454247;32;20034;-65
2022/06/18 05:23:46;;;;;;;21.83;9.63;;;;;;;;;;4454151;32;20033;-66
2022/06/18 05:26:13;;;;;;;20.35;8.63;;;;;;;;;;4439587;32;20120;-65
2022/06/18 05:28:38;;;;;;;21.15;8.45;;;;;;;;;;4452911;32;20101;-64
2022/06/18 05:31:03;;;;;;;25.45;9.98;;;;;;;;;;4440076;32;20052;-65
2022/06/18 05:33:28;;;;;;;24.73;10.63;;;;;;;;;;4453204;32;20148;-64
2022/06/18 05:35:54;;;;;;;21.40;10.98;;;;;;;;;;4437945;32;20418;-66
2022/06/18 05:38:20;;;;;;;24.85;10.57;;;;;;;;;;4451962;32;20131;-65
2022/06/18 05:40:45;;;;;;;27.95;10.85;;;;;;;;;;4454003;32;20079;-64
2022/06/18 05:43:10;;;;;;;27.45;10.80;;;;;;;;;;4454052;32;20398;-65
2022/06/18 05:45:36;;;;;;;24.73;10.95;;;;;;;;;;4454333;32;20025;-65
2022/06/18 05:48:01;;;;;;;30.50;11.02;;;;;;;;;;4452868;32;20093;-64
2022/06/18 05:50:26;;;;;;;26.13;10.13;;;;;;;;;;4453191;32;20043;-64
2022/06/18 05:52:51;;;;;;;18.20;9.60;;;;;;;;;;4451988;32;20158;-65
2022/06/18 05:55:20;;;;;;;25.03;11.17;;;;;;;;;;4451960;32;20370;-65
2022/06/18 05:57:50;;;;;;;25.52;10.35;;;;;;;;;;4452543;32;20144;-64
2022/06/18 06:00:16;;;;;;;24.20;9.48;;;;;;;;;;4453438;32;20037;-64
2022/06/18 06:02:42;;;;;;;17.48;9.30;;;;;;;;;;4452213;32;20524;-64
2022/06/18 06:05:07;;;;;;;18.77;9.45;;;;;;;;;;4453789;32;20025;-64
2022/06/18 06:07:33;;;;;;;19.58;10.43;;;;;;;;;;4436543;32;20124;-64
2022/06/18 06:12:42;;;;;;;28.73;9.45;;;;;;;;;;4452761;32;20070;-65
2022/06/18 06:15:07;;;;;;;25.85;9.77;;;;;;;;;;4451657;32;20097;-65
2022/06/18 06:17:33;;;;;;;28.12;10.07;;;;;;;;;;4436928;32;20026;-65
2022/06/18 06:20:03;;;;;;;25.73;8.32;;;;;;;;;;4452439;32;20064;-66
2022/06/18 06:22:28;;;;;;;16.75;8.15;;;;;;;;;;4443914;32;20191;-66
2022/06/18 06:24:53;;;;;;;18.02;7.90;;;;;;;;;;4449537;32;20075;-66
2022/06/18 06:27:19;;;;;;;18.05;8.73;;;;;;;;;;4424405;32;20056;-67
2022/06/18 06:29:44;;;;;;;18.12;9.15;;;;;;;;;;4449152;32;20033;-65
2022/06/18 06:32:09;;;;;;;18.50;8.02;;;;;;;;;;4443542;32;20404;-67
2022/06/18 06:34:34;;;;;;;25.92;8.52;;;;;;;;;;4449258;32;20045;-67
2022/06/18 06:36:59;;;;;;;23.23;8.70;;;;;;;;;;4451724;32;20037;-67
2022/06/18 06:39:24;;;;;;;19.80;8.38;;;;;;;;;;4426768;32;20034;-67
2022/06/18 06:41:50;;;;;;;22.57;9.37;;;;;;;;;;4437074;32;20078;-65
2022/06/18 06:44:15;;;;;;;23.23;8.20;;;;;;;;;;4447381;32;20478;-65
2022/06/18 06:46:40;;;;;;;21.30;8.52;;;;;;;;;;4450038;32;20101;-65
2022/06/18 06:49:05;;;;;;;21.08;9.95;;;;;;;;;;4451388;32;20514;-65
2022/06/18 06:51:31;;;;;;;17.27;8.23;;;;;;;;;;4451087;32;20021;-66
2022/06/18 06:53:56;;;;;;;21.20;8.05;;;;;;;;;;4452126;32;20505;-65
2022/06/18 06:59:06;;;;;;;19.37;8.43;;;;;;;;;;4452630;32;20048;-66
2022/06/18 07:01:34;;;;;;;21.98;7.85;;;;;;;;;;4450210;32;20037;-65
2022/06/18 07:03:59;;;;;;;17.52;7.78;;;;;;;;;;4451997;32;20421;-66
2022/06/18 07:06:24;;;;;;;25.20;10.83;;;;;;;;;;4438235;32;20025;-65
2022/06/18 07:08:50;;;;;;;17.75;8.73;;;;;;;;;;4437588;32;20121;-65
2022/06/18 07:11:17;;;;;;;17.02;8.13;;;;;;;;;;4452367;32;20037;-65
2022/06/18 07:13:42;;;;;;;27.17;10.65;;;;;;;;;;4452141;32;20112;-65
2022/06/18 07:16:14;;;;;;;26.55;8.55;;;;;;;;;;4450694;32;20025;-65
2022/06/18 07:18:40;;;;;;;22.23;9.93;;;;;;;;;;4438457;32;20091;-67
2022/06/18 07:21:06;;;;;;;19.87;10.27;;;;;;;;;;4451961;32;20030;-65
2022/06/18 07:23:31;;;;;;;19.10;10.27;;;;;;;;;;4450805;32;20370;-65
2022/06/18 07:25:57;;;;;;;23.17;10.38;;;;;;;;;;4451659;32;20419;-65
2022/06/18 07:28:22;;;;;;;21.35;9.23;;;;;;;;;;4449914;32;20077;-65
2022/06/18 07:30:47;;;;;;;22.85;9.82;;;;;;;;;;4438230;32;20146;-65
2022/06/18 07:33:13;;;;;;;21.17;8.95;;;;;;;;;;4452118;32;20482;-65
2022/06/18 07:35:39;;;;;;;23.90;9.48;;;;;;;;;;4450902;32;20091;-66
2022/06/18 07:38:04;;;;;;;21.37;9.50;;;;;;;;;;4449620;32;20025;-66
2022/06/18 07:40:31;;;;;;;23.95;8.23;;;;;;;;;;4450811;32;20055;-65
2022/06/18 07:42:56;;;;;;;18.85;9.10;;;;;;;;;;4451401;32;20037;-66
2022/06/18 07:45:22;;;;;;;20.43;8.53;;;;;;;;;;4436733;32;20485;-66
2022/06/18 07:47:48;;;;;;;12.77;7.62;;;;;;;;;;4450075;32;20184;-65
2022/06/18 07:50:14;;;;;;;18.35;8.40;;;;;;;;;;4450733;32;20033;-66
2022/06/18 07:52:40;;;;;;;21.70;9.23;;;;;;;;;;4452400;32;20075;-66
2022/06/18 07:55:06;;;;;;;27.10;8.93;;;;;;;;;;4452258;32;20026;-65
2022/06/18 07:57:31;;;;;;;18.50;8.18;;;;;;;;;;4451425;32;20127;-66
2022/06/18 07:59:57;;;;;;;31.70;10.85;;;;;;;;;;4451498;32;20351;-66
2022/06/18 08:02:22;;;;;;;20.15;7.95;;;;;;;;;;4450294;32;20370;-67
2022/06/18 08:04:48;;;;;;;19.33;8.52;;;;;;;;;;4451822;32;20516;-66
2022/06/18 08:07:13;;;;;;;16.47;8.27;;;;;;;;;;4450145;32;20403;-66
2022/06/18 08:09:38;;;;;;;16.60;9.13;;;;;;;;;;4452010;32;20155;-66
2022/06/18 08:12:03;;;;;;;17.87;8.70;;;;;;;;;;4451700;32;20580;-66
2022/06/18 08:14:29;;;;;;;18.10;8.00;;;;;;;;;;4449969;32;20481;-66
2022/06/18 08:16:54;;;;;;;19.65;8.55;;;;;;;;;;4451075;32;20022;-67
2022/06/18 08:19:20;;;;;;;19.60;7.65;;;;;;;;;;4451531;32;20025;-66
2022/06/18 08:21:45;;;;;;;18.17;7.68;;;;;;;;;;4452436;32;20025;-64
2022/06/18 08:24:14;;;;;;;27.95;8.73;;;;;;;;;;4453003;32;20017;-66
2022/06/18 08:26:40;;;;;;;16.70;6.43;;;;;;;;;;4453639;32;20103;-66
2022/06/18 08:29:06;;;;;;;13.23;6.37;;;;;;;;;;4453625;32;20017;-65
2022/06/18 08:31:31;;;;;;;15.40;6.90;;;;;;;;;;4439270;32;20029;-66
2022/06/18 08:33:57;;;;;;;21.40;7.18;;;;;;;;;;4440309;32;20332;-66
2022/06/18 08:36:23;;;;;;;14.85;6.43;;;;;;;;;;4454494;32;20029;-66
2022/06/18 08:38:49;;;;;;;15.68;6.28;;;;;;;;;;4452687;32;20038;-66
2022/06/18 08:41:23;;;;;;;18.45;6.62;;;;;;;;;;4452891;32;20021;-66
2022/06/18 08:43:54;;;;;;;15.68;6.62;;;;;;;;;;4452046;32;20342;-66
2022/06/18 08:46:26;;;;;;;17.73;6.30;;;;;;;;;;4454325;32;20394;-66
2022/06/18 08:48:54;;;;;;;17.52;6.43;;;;;;;;;;4440354;32;20044;-66
2022/06/18 08:51:24;;;;;;;16.05;5.80;;;;;;;;;;4454020;32;20095;-66
2022/06/18 08:53:53;;;;;;;12.70;4.93;;;;;;;;;;4452786;32;20124;-66
2022/06/18 08:56:25;;;;;;;17.98;5.68;;;;;;;;;;4453375;32;20564;-65
2022/06/18 08:59:02;;;;;;;15.20;6.90;;;;;;;;;;4454174;32;20026;-66
2022/06/18 09:01:29;;;;;;;17.85;6.45;;;;;;;;;;4452818;32;20047;-66
2022/06/18 09:04:04;;;;;;;16.62;7.50;;;;;;;;;;4451951;32;20071;-67
2022/06/18 09:06:32;;;;;;;11.68;4.60;;;;;;;;;;4453568;32;20045;-66
2022/06/18 09:09:06;;;;;;;14.40;6.45;;;;;;;;;;4452908;32;20082;-66
2022/06/18 09:11:52;;;;;;;11.70;5.62;;;;;;;;;;4454110;32;20299;-65
2022/06/18 09:14:30;;;;;;;12.68;5.45;;;;;;;;;;4438942;32;20515;-65
2022/06/18 09:17:04;;;;;;;15.65;6.03;;;;;;;;;;4437629;32;20088;-66
2022/06/18 09:19:30;;;;;;;14.45;5.70;;;;;;;;;;4451908;32;20033;-67
2022/06/18 09:21:57;;;;;;;17.40;7.62;;;;;;;;;;4451939;32;20017;-65
2022/06/18 09:24:29;;;;;;;15.07;7.00;;;;;;;;;;4452890;32;20025;-65
2022/06/18 09:26:59;;;;;;;16.90;6.90;;;;;;;;;;4451577;32;20106;-66
2022/06/18 09:29:25;;;;;;;14.20;6.37;;;;;;;;;;4454054;32;20040;-64
2022/06/18 09:31:57;;;;;;;16.43;6.30;;;;;;;;;;4438667;32;20030;-64
2022/06/18 09:34:29;;;;;;;13.55;5.47;;;;;;;;;;4452647;32;20478;-66
2022/06/18 09:36:58;;;;;;;14.77;6.68;;;;;;;;;;4452953;32;20030;-66
2022/06/18 09:39:26;;;;;;;14.40;6.45;;;;;;;;;;4452581;32;20068;-66
2022/06/18 09:41:57;;;;;;;13.15;5.70;;;;;;;;;;4453669;32;20063;-65
2022/06/18 09:44:27;;;;;;;17.15;7.10;;;;;;;;;;4437740;32;20067;-66
2022/06/18 09:46:56;;;;;;;14.00;6.22;;;;;;;;;;4437390;32;20366;-65
2022/06/18 09:49:21;;;;;;;16.70;7.20;;;;;;;;;;4451785;32;20069;-66
2022/06/18 09:52:15;;;;;;;19.30;7.22;;;;;;;;;;4452557;32;20066;-66
2022/06/18 09:54:58;;;;;;;17.00;7.32;;;;;;;;;;4434497;32;20417;-67
2022/06/18 09:57:25;;;;;;;15.73;6.72;;;;;;;;;;4438035;32;20164;-66
2022/06/18 10:00:07;;;;;;;16.20;7.75;;;;;;;;;;4436152;32;20396;-67
2022/06/18 10:02:34;;;;;;;15.95;6.10;;;;;;;;;;4436430;32;20025;-65
2022/06/18 10:07:46;;;;;;;15.85;6.65;;;;;;;;;;4450105;32;20052;-66
2022/06/18 10:10:17;;;;;;;16.65;6.12;;;;;;;;;;4441466;32;20025;-65
2022/06/18 10:12:48;;;;;;;13.10;5.60;;;;;;;;;;4434613;32;20101;-65
2022/06/18 10:15:14;;;;;;;14.98;5.40;;;;;;;;;;4452655;32;20021;-65
2022/06/18 10:17:53;;;;;;;13.32;6.03;;;;;;;;;;4451351;32;20386;-65
2022/06/18 10:20:18;;;;;;;10.98;4.78;;;;;;;;;;4451781;32;20160;-67
2022/06/18 10:23:03;;;;;;;11.75;5.45;;;;;;;;;;4438878;32;20127;-66
2022/06/18 10:25:36;;;;;;;13.60;5.28;;;;;;;;;;4446008;32;20313;-66
2022/06/18 10:28:17;;;;;;;10.38;4.53;;;;;;;;;;4435425;32;20029;-66
2022/06/18 10:31:21;;;;;;;12.93;4.97;;;;;;;;;;4440599;32;20042;-66
2022/06/18 10:33:58;;;;;;;14.48;4.97;;;;;;;;;;4363177;32;20087;-66
2022/06/18 10:36:47;;;;;;;7.43;4.25;;;;;;;;;;4374686;32;20094;-66
2022/06/18 10:39:15;;;;;;;16.65;5.12;;;;;;;;;;4427921;32;20045;-66
2022/06/18 10:41:46;;;;;;;11.20;4.40;;;;;;;;;;4452017;32;20049;-66
2022/06/18 10:44:27;;;;;;;12.93;4.53;;;;;;;;;;4443513;32;20079;-67
2022/06/18 10:47:08;;;;;;;13.18;4.22;;;;;;;;;;4451976;32;20037;-67
2022/06/18 10:49:34;;;;;;;10.07;4.40;;;;;;;;;;4449310;32;20033;-67
2022/06/18 10:52:00;;;;;;;10.30;3.72;;;;;;;;;;4434874;32;20109;-67
2022/06/18 10:54:30;;;;;;;9.45;3.97;;;;;;;;;;4452363;32;20412;-66
2022/06/18 10:56:58;;;;;;;11.32;3.80;;;;;;;;;;4421013;32;20373;-66
2022/06/18 10:59:32;;;;;;;10.30;4.05;;;;;;;;;;4437787;32;20034;-66
2022/06/18 11:02:03;;;;;;;14.63;4.68;;;;;;;;;;4437158;32;20067;-67
2022/06/18 11:04:30;;;;;;;10.23;4.50;;;;;;;;;;4452946;32;20052;-66
2022/06/18 11:06:57;;;;;;;13.62;4.30;;;;;;;;;;4437595;32;20045;-66
2022/06/18 11:09:24;;;;;;;10.10;4.25;;;;;;;;;;4451939;32;20024;-67
2022/06/18 11:11:57;;;;;;;12.00;4.00;;;;;;;;;;4451570;32;20095;-67
2022/06/18 11:14:23;;;;;;;7.93;3.53;;;;;;;;;;4451690;32;20032;-68
2022/06/18 11:16:51;;;;;;;9.18;4.40;;;;;;;;;;4450303;32;20051;-69
2022/06/18 11:19:18;;;;;;;13.15;5.32;;;;;;;;;;4436211;32;20055;-67
2022/06/18 11:21:44;;;;;;;11.55;5.00;;;;;;;;;;4450038;32;20048;-68
2022/06/18 11:24:12;;;;;;;10.85;3.53;;;;;;;;;;4452186;32;20383;-68
2022/06/18 11:26:41;;;;;;;13.07;4.47;;;;;;;;;;4451557;32;20081;-67
2022/06/18 11:29:11;;;;;;;8.85;3.45;;;;;;;;;;4451957;32;20025;-68
2022/06/18 11:31:43;;;;;;;9.48;4.03;;;;;;;;;;4448884;32;20089;-68
2022/06/18 11:34:29;;;;;;;9.30;3.85;;;;;;;;;;4430338;32;20090;-67
2022/06/18 11:36:55;;;;;;;8.25;3.62;;;;;;;;;;4448224;32;20036;-69
2022/06/18 11:39:26;;;;;;;13.10;4.97;;;;;;;;;;4448253;32;20080;-68
2022/06/18 11:41:54;;;;;;;8.60;3.30;;;;;;;;;;4451421;32;20068;-67
2022/06/18 11:44:25;;;;;;;11.95;4.32;;;;;;;;;;4450007;32;20064;-67
2022/06/18 11:47:09;;;;;;;9.63;3.47;;;;;;;;;;4450869;32;20025;-67
2022/06/18 11:49:34;;;;;;;11.40;3.20;;;;;;;;;;4451835;32;20088;-68
2022/06/18 11:52:05;;;;;;;6.82;3.62;;;;;;;;;;4452102;32;20051;-67
2022/06/18 11:54:34;;;;;;;15.15;4.55;;;;;;;;;;4450504;32;20021;-67
2022/06/18 11:56:59;;;;;;;8.15;2.87;;;;;;;;;;4454314;32;20106;-67
2022/06/18 11:59:33;;;;;;;17.50;3.70;;;;;;;;;;4440061;32;20426;-67
2022/06/18 12:02:02;;;;;;;8.45;3.70;;;;;;;;;;4454518;32;20428;-67
2022/06/18 12:04:34;;;;;;;20.08;4.65;;;;;;;;;;4453980;32;20397;-68
2022/06/18 12:07:21;;;;;;;8.05;3.70;;;;;;;;;;4454380;32;20057;-66
2022/06/18 12:09:46;;;;;;;7.15;2.80;;;;;;;;;;4440098;32;20392;-67
2022/06/18 12:12:28;;;;;;;13.45;3.60;;;;;;;;;;4454576;32;20025;-67
2022/06/18 12:15:00;;;;;;;14.05;3.05;;;;;;;;;;4454140;32;20079;-68
2022/06/18 12:17:38;;;;;;;9.85;3.72;;;;;;;;;;4439664;32;20411;-67
2022/06/18 12:20:07;;;;;;;8.73;3.40;;;;;;;;;;4438795;32;20387;-68
2022/06/18 12:22:40;;;;;;;8.73;2.97;;;;;;;;;;4454542;32;20025;-70
2022/06/18 12:25:24;;;;;;;6.78;3.03;;;;;;;;;;4453633;32;20037;-68
2022/06/18 12:27:58;;;;;;;8.77;2.97;;;;;;;;;;4453095;32;20061;-68
2022/06/18 12:30:26;;;;;;;6.50;3.08;;;;;;;;;;4454484;32;20097;-68
2022/06/18 12:33:05;;;;;;;7.35;2.78;;;;;;;;;;4438991;32;20038;-68
2022/06/18 12:35:37;;;;;;;8.48;3.20;;;;;;;;;;4454107;32;20443;-66
2022/06/18 12:38:21;;;;;;;7.05;2.58;;;;;;;;;;4454132;32;20025;-68
2022/06/18 12:41:04;;;;;;;6.82;2.72;;;;;;;;;;4454845;32;20021;-67
2022/06/18 12:43:32;;;;;;;7.28;3.45;;;;;;;;;;4454309;32;20408;-67
2022/06/18 12:46:01;;;;;;;6.87;3.03;;;;;;;;;;4452768;32;20028;-67
2022/06/18 12:48:47;;;;;;;8.07;2.70;;;;;;;;;;4453883;32;20110;-67
2022/06/18 12:51:15;;;;;;;5.87;2.42;;;;;;;;;;4439323;32;20164;-67
2022/06/18 12:53:52;;;;;;;10.77;3.15;;;;;;;;;;4439954;32;20306;-67
2022/06/18 12:56:37;;;;;;;8.82;4.00;;;;;;;;;;4451880;32;20118;-66
2022/06/18 12:59:02;;;;;;;10.52;3.17;;;;;;;;;;4439657;32;20455;-67
2022/06/18 13:01:47;;;;;;;7.65;2.70;;;;;;;;;;4454061;32;20026;-67
2022/06/18 13:04:27;;;;;;;8.45;3.20;;;;;;;;;;4438024;32;20030;-67
2022/06/18 13:06:56;;;;;;;9.05;2.87;;;;;;;;;;4451922;32;20454;-67
2022/06/18 13:09:24;;;;;;;8.43;3.20;;;;;;;;;;4454087;32;20056;-67
2022/06/18 13:11:56;;;;;;;6.57;2.62;;;;;;;;;;4453808;32;20064;-67
2022/06/18 13:14:37;;;;;;;10.10;3.50;;;;;;;;;;4453676;32;20049;-67
2022/06/18 13:17:06;;;;;;;6.57;3.03;;;;;;;;;;4452564;32;20021;-67
2022/06/18 13:19:39;;;;;;;6.40;2.97;;;;;;;;;;4439968;32;20026;-68
2022/06/18 13:22:05;;;;;;;6.60;2.33;;;;;;;;;;4451947;32;20080;-67
2022/06/18 13:30:21;;;;;;;11.07;3.75;;;;;;;;;;4453225;32;20077;-67
2022/06/18 13:32:59;;;;;;;9.95;3.25;;;;;;;;;;4453830;32;20056;-67
2022/06/18 13:35:24;;;;;;;8.70;2.58;;;;;;;;;;4453915;32;20052;-67
2022/06/18 13:38:04;;;;;;;7.93;2.78;;;;;;;;;;4453349;32;20025;-67
2022/06/18 13:40:42;;;;;;;7.53;2.87;;;;;;;;;;4434992;32;20214;-67
2022/06/18 13:43:27;;;;;;;9.18;3.22;;;;;;;;;;4434764;32;20021;-66
2022/06/18 13:46:08;;;;;;;7.60;3.00;;;;;;;;;;4420440;32;20435;-68
2022/06/18 13:48:41;;;;;;;10.23;2.72;;;;;;;;;;4422506;32;20052;-67
2022/06/18 13:51:06;;;;;;;6.78;3.40;;;;;;;;;;4422660;32;20091;-68
2022/06/18 13:53:33;;;;;;;9.38;3.15;;;;;;;;;;4420766;32;20421;-67
2022/06/18 13:55:59;;;;;;;9.65;3.22;;;;;;;;;;4426937;32;20072;-67
2022/06/18 13:58:29;;;;;;;8.27;2.83;;;;;;;;;;4437816;32;20038;-67
2022/06/18 14:01:04;;;;;;;11.32;3.28;;;;;;;;;;4436262;32;20399;-68
2022/06/18 14:03:30;;;;;;;7.40;2.75;;;;;;;;;;4435957;32;20421;-67
2022/06/18 14:05:55;;;;;;;11.35;3.08;;;;;;;;;;4437144;32;20022;-66
2022/06/18 14:08:29;;;;;;;8.60;2.97;;;;;;;;;;4436053;32;20104;-67
2022/06/18 14:10:56;;;;;;;6.03;3.08;;;;;;;;;;4435712;32;20075;-68
2022/06/18 14:13:25;;;;;;;7.72;2.50;;;;;;;;;;4435503;32;20411;-68
2022/06/18 14:15:55;;;;;;;5.32;2.55;;;;;;;;;;4436877;32;20163;-67
2022/06/18 14:18:21;;;;;;;7.62;3.00;;;;;;;;;;4436201;32;20077;-67
2022/06/18 14:20:53;;;;;;;8.20;2.40;;;;;;;;;;4436119;32;20398;-67
2022/06/18 14:23:27;;;;;;;9.13;3.22;;;;;;;;;;4429346;32;20034;-68
2022/06/18 14:25:55;;;;;;;8.73;2.87;;;;;;;;;;4435656;32;20073;-68
2022/06/18 14:28:30;;;;;;;9.32;3.55;;;;;;;;;;4436539;32;20415;-66
2022/06/18 14:31:11;;;;;;;5.95;2.62;;;;;;;;;;4434074;32;20584;-68
2022/06/18 14:33:43;;;;;;;10.55;2.78;;;;;;;;;;4433388;32;20098;-69
2022/06/18 14:36:24;;;;;;;4.68;2.20;;;;;;;;;;4419863;32;20054;-67
2022/06/18 14:38:50;;;;;;;8.27;2.83;;;;;;;;;;4427972;32;20041;-69
2022/06/18 14:41:35;;;;;;;4.70;2.33;;;;;;;;;;4452699;32;20058;-68
2022/06/18 14:44:15;;;;;;;5.87;2.10;;;;;;;;;;4451569;32;20097;-67
2022/06/18 14:46:52;;;;;;;3.97;1.92;;;;;;;;;;4452564;32;20061;-67
2022/06/18 14:49:18;;;;;;;9.82;2.40;;;;;;;;;;4453228;32;20073;-67
2022/06/18 14:51:43;;;;;;;9.00;3.12;;;;;;;;;;4451996;32;20349;-68
2022/06/18 14:54:08;;;;;;;;;;;;;;;;;;4450953;32;20119;-68
2022/06/18 14:56:33;;;;;;;;;;;;;;;;;;4451824;32;19934;-67
2022/06/18 14:59:17;;;;;;;4.53;2.45;;;;;;;;;;4452337;32;19950;-68
2022/06/18 15:02:14;;;;;;;4.82;2.28;;;;;;;;;;4450750;32;20025;-68